Time;durP1;ratioP1;P1;durP2;ratioP2;P2;SDS_P1;SDS_P2;PMS_P1;PMS_P2;Temp;Humidity;BMP_temperature;BMP_pressure;BME280_temperature;BME280_humidity;BME280_pressure;Samples;Min_cycle;Max_cycle;Signal;HPM_P1;HPM_P2
2022/11/29 00:00:32;;;;;;;7.22;4.55;;;10.20;80.60;;;;;;5051885;28;20037;-82
2022/11/29 00:02:57;;;;;;;9.07;4.93;;;10.20;80.60;;;;;;5047857;28;20037;-82
2022/11/29 00:05:23;;;;;;;5.93;3.80;;;10.20;80.60;;;;;;5052503;28;20053;-80
2022/11/29 00:07:49;;;;;;;5.18;4.45;;;10.20;80.70;;;;;;5052743;28;20029;-82
2022/11/29 00:10:14;;;;;;;6.53;4.75;;;10.20;80.70;;;;;;5048952;28;20470;-81
2022/11/29 00:12:40;;;;;;;8.63;5.15;;;10.20;80.70;;;;;;5051918;28;20382;-81
2022/11/29 00:15:06;;;;;;;6.22;4.03;;;10.20;80.80;;;;;;5044643;28;20045;-80
2022/11/29 00:17:32;;;;;;;7.53;5.57;;;10.20;80.60;;;;;;5050282;28;20024;-79
2022/11/29 00:19:57;;;;;;;5.10;4.13;;;10.10;81.00;;;;;;5045262;28;20119;-79
2022/11/29 00:22:24;;;;;;;9.52;5.65;;;10.10;80.80;;;;;;5045564;28;20032;-80
2022/11/29 00:24:50;;;;;;;5.85;4.43;;;10.10;81.30;;;;;;5051567;28;20033;-80
2022/11/29 00:27:16;;;;;;;7.20;4.78;;;10.10;81.00;;;;;;5043344;28;20031;-80
2022/11/29 00:29:42;;;;;;;6.50;4.85;;;10.10;81.20;;;;;;5040229;28;20116;-80
2022/11/29 00:32:08;;;;;;;6.97;5.25;;;10.10;81.20;;;;;;5049775;28;20117;-80
2022/11/29 00:34:34;;;;;;;6.35;4.53;;;10.10;81.30;;;;;;5054134;28;20029;-82
2022/11/29 00:37:00;;;;;;;5.63;4.32;;;10.20;81.20;;;;;;5051334;28;20024;-82
2022/11/29 00:39:25;;;;;;;6.43;4.60;;;10.20;81.10;;;;;;5046503;28;20032;-82
2022/11/29 00:41:51;;;;;;;7.30;4.97;;;10.30;81.10;;;;;;5052051;28;20123;-81
2022/11/29 00:44:17;;;;;;;7.30;4.93;;;10.30;81.00;;;;;;5044671;28;20032;-80
2022/11/29 00:46:42;;;;;;;6.35;4.63;;;10.30;80.90;;;;;;5051524;28;20037;-80
2022/11/29 00:49:08;;;;;;;6.47;4.95;;;10.30;80.90;;;;;;5050591;28;20025;-80
2022/11/29 00:51:34;;;;;;;7.22;4.90;;;10.30;80.90;;;;;;5044940;28;20374;-80
2022/11/29 00:54:00;;;;;;;6.65;4.72;;;10.30;80.90;;;;;;5045535;28;20113;-80
2022/11/29 00:56:26;;;;;;;8.13;5.68;;;10.30;80.90;;;;;;5052328;28;20021;-80
2022/11/29 00:58:51;;;;;;;6.75;5.30;;;10.30;80.80;;;;;;5045386;28;20111;-79
2022/11/29 01:01:17;;;;;;;7.28;4.93;;;10.30;80.70;;;;;;5053258;28;20029;-80
2022/11/29 01:03:43;;;;;;;8.45;5.38;;;10.30;80.60;;;;;;5042528;28;20033;-82
2022/11/29 01:06:13;;;;;;;11.43;6.57;;;10.30;80.80;;;;;;5050829;28;20041;-84
2022/11/29 01:08:38;;;;;;;8.82;4.95;;;10.20;81.20;;;;;;5052463;28;20032;-84
2022/11/29 01:11:09;;;;;;;5.57;4.65;;;10.10;81.50;;;;;;5052355;28;20021;-84
2022/11/29 01:13:35;;;;;;;6.50;5.45;;;10.20;82.00;;;;;;5051622;28;20516;-81
2022/11/29 01:16:01;;;;;;;7.55;5.25;;;10.20;81.60;;;;;;5044470;28;20029;-80
2022/11/29 01:18:29;;;;;;;7.65;5.40;;;10.20;81.40;;;;;;5051937;28;20048;-82
2022/11/29 01:21:00;;;;;;;10.05;7.05;;;10.20;81.40;;;;;;5046500;28;20021;-81
2022/11/29 01:23:27;;;;;;;8.55;6.57;;;10.20;81.80;;;;;;5045643;28;20037;-81
2022/11/29 01:26:01;;;;;;;8.38;6.07;;;10.20;81.90;;;;;;5043345;28;20373;-82
2022/11/29 01:28:27;;;;;;;6.75;5.38;;;10.10;82.20;;;;;;5058011;28;20586;-83
2022/11/29 01:30:52;;;;;;;8.45;6.10;;;10.10;82.10;;;;;;5038462;28;20029;-83
2022/11/29 01:33:18;;;;;;;8.35;6.68;;;10.00;82.70;;;;;;5038507;28;20045;-83
2022/11/29 01:35:53;;;;;;;6.97;5.78;;;10.00;82.90;;;;;;5049200;28;20022;-82
2022/11/29 01:38:20;;;;;;;8.25;5.63;;;10.00;83.00;;;;;;5049244;28;20072;-83
2022/11/29 01:41:03;;;;;;;8.00;5.75;;;10.00;82.60;;;;;;5049880;28;20480;-83
2022/11/29 01:43:29;;;;;;;8.30;5.45;;;10.00;82.70;;;;;;5051239;28;20083;-82
2022/11/29 01:45:55;;;;;;;8.23;5.75;;;10.00;82.90;;;;;;5045577;28;20055;-82
2022/11/29 01:48:24;;;;;;;9.25;6.65;;;10.10;82.70;;;;;;5044386;28;20065;-83
2022/11/29 01:50:53;;;;;;;6.57;5.13;;;10.10;83.10;;;;;;5036754;28;20108;-82
2022/11/29 01:53:19;;;;;;;8.45;6.55;;;10.10;82.90;;;;;;5048571;28;20063;-82
2022/11/29 01:55:50;;;;;;;9.43;6.95;;;10.10;82.80;;;;;;5050346;28;20037;-82
2022/11/29 01:58:17;;;;;;;7.72;6.28;;;10.10;83.10;;;;;;5048240;28;20715;-82
2022/11/29 02:00:42;;;;;;;8.45;6.03;;;10.10;83.00;;;;;;5042380;28;20060;-82
2022/11/29 02:03:11;;;;;;;10.38;6.35;;;10.10;82.90;;;;;;5043086;28;20076;-82
2022/11/29 02:05:41;;;;;;;8.07;6.25;;;10.10;83.10;;;;;;5043460;28;20500;-82
2022/11/29 02:08:08;;;;;;;12.40;7.78;;;10.10;83.20;;;;;;5047079;28;20037;-82
2022/11/29 02:10:58;;;;;;;8.18;6.28;;;10.00;83.80;;;;;;5047762;28;20024;-81
2022/11/29 02:13:32;;;;;;;8.38;5.85;;;10.00;83.50;;;;;;5043982;28;20029;-81
2022/11/29 02:16:19;;;;;;;7.53;5.57;;;10.00;83.50;;;;;;5032762;28;20051;-80
2022/11/29 02:18:47;;;;;;;8.27;6.18;;;10.00;83.50;;;;;;5050395;28;20064;-80
2022/11/29 02:21:42;;;;;;;8.30;6.15;;;10.00;83.40;;;;;;5043488;28;20028;-78
2022/11/29 02:24:13;;;;;;;8.35;6.00;;;10.10;83.30;;;;;;5043401;28;20037;-78
2022/11/29 02:27:06;;;;;;;6.95;5.53;;;10.10;83.30;;;;;;5047386;28;20055;-78
2022/11/29 02:29:49;;;;;;;10.63;7.80;;;10.10;83.40;;;;;;5043448;28;20029;-78
2022/11/29 02:32:40;;;;;;;8.57;6.65;;;10.00;83.90;;;;;;5052402;28;20025;-79
2022/11/29 02:35:08;;;;;;;9.70;6.75;;;10.00;83.50;;;;;;5052880;28;20381;-79
2022/11/29 02:38:05;;;;;;;8.38;6.20;;;10.00;84.30;;;;;;5051099;28;20107;-79
2022/11/29 02:40:51;;;;;;;9.20;6.32;;;10.00;83.90;;;;;;5040727;28;20481;-79
2022/11/29 02:43:29;;;;;;;8.50;6.95;;;10.00;84.00;;;;;;5043890;28;20072;-79
2022/11/29 02:46:20;;;;;;;9.00;6.63;;;10.00;84.20;;;;;;5052684;28;20029;-79
2022/11/29 02:48:56;;;;;;;9.88;7.25;;;9.90;84.40;;;;;;5046674;28;20357;-83
2022/11/29 02:51:31;;;;;;;9.10;6.97;;;9.90;84.60;;;;;;5045380;28;20109;-83
2022/11/29 02:54:06;;;;;;;8.32;6.45;;;9.90;84.60;;;;;;5054136;28;20053;-83
2022/11/29 02:56:57;;;;;;;10.25;7.35;;;9.90;84.40;;;;;;5044098;28;20033;-82
2022/11/29 02:59:40;;;;;;;10.93;8.68;;;9.90;84.80;;;;;;5054901;28;20480;-79
2022/11/29 03:02:28;;;;;;;8.65;6.80;;;9.80;84.80;;;;;;5053015;28;20479;-79
2022/11/29 03:05:23;;;;;;;10.05;7.63;;;9.70;84.90;;;;;;5046893;28;20074;-80
2022/11/29 03:08:18;;;;;;;12.20;8.32;;;9.70;85.10;;;;;;5054453;28;20430;-79
2022/11/29 03:11:11;;;;;;;10.52;7.85;;;9.60;85.60;;;;;;5049161;28;20028;-80
2022/11/29 03:13:55;;;;;;;11.18;7.72;;;9.60;85.40;;;;;;5049616;28;20036;-81
2022/11/29 03:16:59;;;;;;;10.23;7.82;;;9.70;85.10;;;;;;5031869;28;20043;-81
2022/11/29 03:19:38;;;;;;;14.07;9.82;;;9.70;84.90;;;;;;5047446;28;20025;-82
2022/11/29 03:22:16;;;;;;;9.93;7.60;;;9.60;85.70;;;;;;5055684;28;20107;-82
2022/11/29 03:24:45;;;;;;;10.20;7.38;;;9.60;85.40;;;;;;5046980;28;20033;-83
2022/11/29 03:27:15;;;;;;;11.38;7.95;;;9.70;85.40;;;;;;5052207;28;20557;-84
2022/11/29 03:29:47;;;;;;;11.55;8.20;;;9.70;85.60;;;;;;5049283;28;20445;-84
2022/11/29 03:32:46;;;;;;;12.95;8.52;;;9.70;85.40;;;;;;5043827;28;20028;-83
2022/11/29 03:35:30;;;;;;;11.75;8.77;;;9.80;85.30;;;;;;5054248;28;20482;-80
2022/11/29 03:38:19;;;;;;;11.38;7.78;;;9.80;85.60;;;;;;5051553;28;20075;-80
2022/11/29 03:40:59;;;;;;;11.60;8.13;;;9.70;85.80;;;;;;5048201;28;20040;-80
2022/11/29 03:43:53;;;;;;;11.05;7.75;;;9.70;85.60;;;;;;5051094;28;20033;-81
2022/11/29 03:46:36;;;;;;;11.18;7.88;;;9.70;85.80;;;;;;5050669;28;20040;-82
2022/11/29 03:49:08;;;;;;;11.85;7.68;;;9.70;85.70;;;;;;5053910;28;20025;-81
2022/11/29 03:51:42;;;;;;;10.50;7.15;;;9.70;85.50;;;;;;5043834;28;20516;-79
2022/11/29 03:54:16;;;;;;;11.13;8.13;;;9.80;85.60;;;;;;5050044;28;20033;-79
2022/11/29 03:56:42;;;;;;;12.30;8.20;;;9.80;85.40;;;;;;5044117;28;20056;-79
2022/11/29 03:59:27;;;;;;;12.70;9.00;;;9.70;85.60;;;;;;5046600;28;20531;-79
2022/11/29 04:02:21;;;;;;;9.40;6.70;;;9.70;85.70;;;;;;5043684;28;20022;-79
2022/11/29 04:05:08;;;;;;;14.07;8.57;;;9.60;85.70;;;;;;5048029;28;20123;-79
2022/11/29 04:08:11;;;;;;;10.35;7.28;;;9.60;85.80;;;;;;5053109;28;20496;-80
2022/11/29 04:10:46;;;;;;;10.77;7.10;;;9.60;85.60;;;;;;5052310;28;20481;-81
2022/11/29 04:13:26;;;;;;;11.40;7.07;;;9.70;85.60;;;;;;5053367;28;20132;-81
2022/11/29 04:16:30;;;;;;;10.93;7.22;;;9.70;85.60;;;;;;5044554;28;20105;-81
2022/11/29 04:19:23;;;;;;;10.43;7.07;;;9.60;85.50;;;;;;5042192;28;20022;-82
2022/11/29 04:21:48;;;;;;;11.05;7.45;;;9.70;85.40;;;;;;5042343;28;20021;-81
2022/11/29 04:24:41;;;;;;;11.18;7.55;;;9.70;85.30;;;;;;5028530;28;20517;-81
2022/11/29 04:27:15;;;;;;;11.15;7.65;;;9.70;85.20;;;;;;5045455;28;20029;-82
2022/11/29 04:29:49;;;;;;;12.70;8.13;;;9.70;85.20;;;;;;5047075;28;20037;-82
2022/11/29 04:32:38;;;;;;;10.43;7.38;;;9.70;85.20;;;;;;5053055;28;20029;-81
2022/11/29 04:35:20;;;;;;;9.27;6.53;;;9.60;85.30;;;;;;5054119;28;20417;-82
2022/11/29 04:37:55;;;;;;;13.77;8.85;;;9.60;85.40;;;;;;5045986;28;20025;-82
2022/11/29 04:40:34;;;;;;;12.52;8.30;;;9.50;85.70;;;;;;5046371;28;20060;-82
2022/11/29 04:43:09;;;;;;;10.38;7.22;;;9.50;85.70;;;;;;5045507;28;20027;-81
2022/11/29 04:45:47;;;;;;;11.05;7.57;;;9.50;85.80;;;;;;5032313;28;20522;-80
2022/11/29 04:48:42;;;;;;;10.75;7.60;;;9.50;85.70;;;;;;5052540;28;20036;-80
2022/11/29 04:51:31;;;;;;;11.40;7.93;;;9.50;85.90;;;;;;5042258;28;20523;-80
2022/11/29 04:54:14;;;;;;;11.50;7.97;;;9.60;85.80;;;;;;5048947;28;20032;-80
2022/11/29 04:56:55;;;;;;;12.38;8.10;;;9.60;85.90;;;;;;5049326;28;20021;-79
2022/11/29 04:59:42;;;;;;;11.00;7.75;;;9.60;86.00;;;;;;5052784;28;20087;-79
2022/11/29 05:02:32;;;;;;;13.50;9.73;;;9.50;86.50;;;;;;5050302;28;20036;-81
2022/11/29 05:04:58;;;;;;;11.95;7.25;;;9.40;86.80;;;;;;5045274;28;20049;-81
2022/11/29 05:07:33;;;;;;;10.93;7.65;;;9.50;86.40;;;;;;5044016;28;20049;-81
2022/11/29 05:10:11;;;;;;;12.07;8.27;;;9.50;86.50;;;;;;5048532;28;20051;-81
2022/11/29 05:12:36;;;;;;;13.15;7.47;;;9.50;86.60;;;;;;5050379;28;20071;-81
2022/11/29 05:15:22;;;;;;;11.13;7.22;;;9.50;86.60;;;;;;5041796;28;20041;-82
2022/11/29 05:18:25;;;;;;;10.27;7.05;;;9.50;86.70;;;;;;5042432;28;20045;-84
2022/11/29 05:21:35;;;;;;;12.00;7.63;;;9.50;86.40;;;;;;5046576;28;20064;-84
2022/11/29 05:24:32;;;;;;;9.02;6.55;;;9.50;86.70;;;;;;4975037;28;20079;-76
2022/11/29 05:27:12;;;;;;;8.68;6.55;;;9.50;86.60;;;;;;5041103;28;20397;-75
2022/11/29 05:29:57;;;;;;;9.77;6.73;;;9.50;86.60;;;;;;5049213;28;20021;-74
2022/11/29 05:32:27;;;;;;;10.38;6.93;;;9.50;86.60;;;;;;5045105;28;20382;-75
2022/11/29 05:34:53;;;;;;;;;;;9.50;87.00;;;;;;5047633;28;20040;-75
2022/11/29 05:37:18;;;;;;;10.73;7.43;;;9.50;86.80;;;;;;5044670;28;19909;-75
2022/11/29 05:40:03;;;;;;;9.52;6.82;;;9.50;86.70;;;;;;5044994;28;20040;-75
2022/11/29 05:42:50;;;;;;;10.48;7.18;;;9.50;86.60;;;;;;5048677;28;20036;-76
2022/11/29 05:45:16;;;;;;;10.23;6.97;;;9.40;87.00;;;;;;5051078;28;20079;-76
2022/11/29 05:48:17;;;;;;;9.27;6.72;;;9.40;87.00;;;;;;5050626;28;20037;-75
2022/11/29 05:50:49;;;;;;;10.95;6.15;;;9.40;86.80;;;;;;4965588;28;20043;-77
2022/11/29 05:53:43;;;;;;;9.25;6.45;;;9.40;86.90;;;;;;5044414;28;20458;-75
2022/11/29 05:56:28;;;;;;;12.18;7.63;;;9.50;87.10;;;;;;5046650;28;20033;-73
2022/11/29 05:58:59;;;;;;;9.60;6.65;;;9.40;87.30;;;;;;5047832;28;20477;-84
2022/11/29 06:01:48;;;;;;;10.68;6.20;;;9.40;87.50;;;;;;5050284;28;20029;-83
2022/11/29 06:04:56;;;;;;;10.63;6.50;;;9.40;87.30;;;;;;5044457;28;20050;-83
2022/11/29 06:07:40;;;;;;;12.38;7.03;;;9.40;87.10;;;;;;5030845;28;20052;-83
2022/11/29 06:10:16;;;;;;;11.52;8.18;;;9.40;87.20;;;;;;5023085;28;20026;-84
2022/11/29 06:12:47;;;;;;;8.07;5.85;;;9.20;87.70;;;;;;5022403;28;20052;-84
2022/11/29 06:15:50;;;;;;;11.90;7.65;;;9.20;87.70;;;;;;5031124;28;20033;-84
2022/11/29 06:18:51;;;;;;;11.52;7.15;;;9.30;87.50;;;;;;5024469;28;20030;-82
2022/11/29 06:21:35;;;;;;;10.27;6.47;;;9.30;87.20;;;;;;4991136;28;20046;-83
2022/11/29 06:24:38;;;;;;;7.65;5.47;;;9.40;87.10;;;;;;5032182;28;20033;-84
2022/11/29 06:27:35;;;;;;;8.13;5.50;;;9.40;87.10;;;;;;5025869;28;20021;-85
2022/11/29 06:30:08;;;;;;;8.35;6.22;;;9.40;87.10;;;;;;5012205;28;20065;-79
2022/11/29 06:32:45;;;;;;;9.00;5.72;;;9.40;87.10;;;;;;5015281;28;20033;-80
2022/11/29 06:35:36;;;;;;;9.43;5.70;;;9.40;87.10;;;;;;5029592;28;20052;-81
2022/11/29 06:38:27;;;;;;;8.70;5.50;;;9.40;86.90;;;;;;5012357;28;20029;-80
2022/11/29 06:40:54;;;;;;;10.27;5.80;;;9.50;86.80;;;;;;5028306;28;20064;-79
2022/11/29 06:43:20;;;;;;;11.70;7.18;;;9.40;87.30;;;;;;5021214;28;20028;-78
2022/11/29 06:46:13;;;;;;;9.68;5.97;;;9.40;86.80;;;;;;5023025;28;20501;-78
2022/11/29 06:48:56;;;;;;;9.57;5.82;;;9.40;86.90;;;;;;5021425;28;20033;-80
2022/11/29 06:51:45;;;;;;;8.38;5.63;;;9.50;86.90;;;;;;5028619;28;20030;-84
2022/11/29 06:54:34;;;;;;;8.90;5.55;;;9.50;86.90;;;;;;5004259;28;20120;-85
2022/11/29 06:57:05;;;;;;;8.10;5.47;;;9.50;86.90;;;;;;5027310;28;20034;-87
2022/11/29 06:59:43;;;;;;;7.75;5.30;;;9.60;86.90;;;;;;5015374;28;20033;-85
2022/11/29 07:02:11;;;;;;;6.47;4.95;;;9.60;86.80;;;;;;5028055;28;20044;-85
2022/11/29 07:05:01;;;;;;;7.43;4.90;;;9.60;86.70;;;;;;5033778;28;20481;-86
2022/11/29 07:07:27;;;;;;;8.10;5.60;;;9.70;86.70;;;;;;5049866;28;20025;-79
2022/11/29 07:09:58;;;;;;;7.10;5.10;;;9.60;86.80;;;;;;5048051;28;20029;-83
2022/11/29 07:12:27;;;;;;;5.90;4.72;;;9.60;86.90;;;;;;5044012;28;20025;-85
2022/11/29 07:14:53;;;;;;;8.73;5.05;;;9.60;86.80;;;;;;5053750;28;20037;-76
2022/11/29 07:17:23;;;;;;;6.88;5.03;;;9.70;86.70;;;;;;5051014;28;20025;-85
2022/11/29 07:20:14;;;;;;;7.57;5.85;;;9.70;86.60;;;;;;5045194;28;20073;-85
2022/11/29 07:23:00;;;;;;;6.32;5.07;;;9.50;87.00;;;;;;5044607;28;20033;-86
2022/11/29 07:25:46;;;;;;;6.75;4.80;;;9.50;87.30;;;;;;5043289;28;20086;-86
2022/11/29 07:28:14;;;;;;;6.03;4.63;;;9.50;87.30;;;;;;5039826;28;20420;-84
2022/11/29 07:30:43;;;;;;;6.85;5.00;;;9.50;87.20;;;;;;5042192;28;20055;-84
2022/11/29 07:33:43;;;;;;;7.45;5.38;;;9.50;87.10;;;;;;5046086;28;20037;-87
2022/11/29 07:36:22;;;;;;;8.02;5.28;;;9.60;87.10;;;;;;5042575;28;20037;-83
2022/11/29 07:39:06;;;;;;;7.90;5.60;;;9.60;87.00;;;;;;5040180;28;20021;-81
2022/11/29 07:41:34;;;;;;;7.78;4.70;;;9.50;87.10;;;;;;5046244;28;20077;-79
2022/11/29 07:44:04;;;;;;;7.40;5.00;;;9.60;87.10;;;;;;5043593;28;20079;-80
2022/11/29 07:46:30;;;;;;;6.32;4.78;;;9.70;87.00;;;;;;5040248;28;20028;-79
2022/11/29 07:48:55;;;;;;;5.03;4.25;;;9.70;86.80;;;;;;5043034;28;20025;-80
2022/11/29 07:51:21;;;;;;;7.20;4.20;;;9.80;86.60;;;;;;5045105;28;20030;-80
2022/11/29 07:53:47;;;;;;;8.40;5.32;;;9.80;86.10;;;;;;5046969;28;20120;-82
2022/11/29 07:56:15;;;;;;;6.88;4.75;;;9.90;86.10;;;;;;5051814;28;20037;-83
2022/11/29 07:58:41;;;;;;;6.70;4.30;;;9.90;86.00;;;;;;5045099;28;20044;-82
2022/11/29 08:01:07;;;;;;;8.30;4.85;;;10.00;86.00;;;;;;5042291;28;20029;-83
2022/11/29 08:03:34;;;;;;;7.47;5.10;;;10.00;85.80;;;;;;5050575;28;20040;-84
2022/11/29 08:06:00;;;;;;;7.70;4.80;;;10.10;85.60;;;;;;5045808;28;20045;-86
2022/11/29 08:08:26;;;;;;;6.93;4.40;;;10.10;85.40;;;;;;5046461;28;20033;-84
2022/11/29 08:10:52;;;;;;;5.55;4.22;;;10.10;85.10;;;;;;5047130;28;20024;-86
2022/11/29 08:13:20;;;;;;;5.13;4.22;;;10.10;84.70;;;;;;5036377;28;20061;-87
2022/11/29 08:15:47;;;;;;;7.57;4.82;;;10.20;84.80;;;;;;5053858;28;20469;-84
2022/11/29 08:18:14;;;;;;;6.07;4.72;;;10.20;85.00;;;;;;5030551;28;20406;-86
2022/11/29 08:20:41;;;;;;;6.53;4.70;;;10.20;84.20;;;;;;5050279;28;20071;-80
2022/11/29 08:23:09;;;;;;;10.15;5.85;;;10.30;84.50;;;;;;5035805;28;20044;-88
2022/11/29 08:25:35;;;;;;;6.05;4.47;;;10.00;82.80;;;;;;5058661;28;20197;-89
2022/11/29 08:28:02;;;;;;;6.13;4.25;;;10.10;83.80;;;;;;5058407;28;20108;-88
2022/11/29 08:30:28;;;;;;;8.48;5.82;;;10.10;83.90;;;;;;5060451;28;20037;-82
2022/11/29 08:32:54;;;;;;;8.75;5.00;;;10.20;83.00;;;;;;5057573;28;20025;-88
2022/11/29 08:35:21;;;;;;;8.70;5.55;;;10.30;83.30;;;;;;5057281;28;20041;-87
2022/11/29 08:37:48;;;;;;;6.72;4.40;;;10.30;82.50;;;;;;5057180;28;20059;-88
2022/11/29 08:40:14;;;;;;;7.43;4.95;;;10.30;82.60;;;;;;5063204;28;20061;-89
2022/11/29 08:42:39;;;;;;;8.68;4.93;;;10.40;83.00;;;;;;5048511;28;20029;-88
2022/11/29 08:45:06;;;;;;;6.82;4.97;;;10.40;82.50;;;;;;5042027;28;20032;-82
2022/11/29 08:47:35;;;;;;;7.88;4.85;;;10.40;82.50;;;;;;5056611;28;20020;-82
2022/11/29 08:50:13;;;;;;;7.25;4.90;;;10.50;82.20;;;;;;5060656;28;20025;-81
2022/11/29 08:55:39;;;;;;;8.73;5.38;;;10.50;81.90;;;;;;5056774;28;20090;-82
2022/11/29 08:58:11;;;;;;;6.47;4.68;;;10.60;81.60;;;;;;5038866;28;20052;-82
2022/11/29 09:00:37;;;;;;;6.57;4.40;;;10.60;81.70;;;;;;5058690;28;20064;-82
2022/11/29 09:05:50;;;;;;;7.40;4.93;;;10.70;81.40;;;;;;5057549;28;20047;-88
2022/11/29 09:08:16;;;;;;;7.85;5.07;;;10.70;81.10;;;;;;5061000;28;20416;-82
2022/11/29 09:10:41;;;;;;;6.82;4.32;;;10.70;80.20;;;;;;5056467;28;20035;-82
2022/11/29 09:13:09;;;;;;;7.47;4.75;;;10.70;80.40;;;;;;5060543;28;20712;-82
2022/11/29 09:15:36;;;;;;;10.77;6.03;;;10.80;80.60;;;;;;5058670;28;20020;-82
2022/11/29 09:18:04;;;;;;;11.52;6.30;;;10.70;80.10;;;;;;5061259;28;20107;-89
2022/11/29 09:20:30;;;;;;;6.80;4.80;;;10.70;79.40;;;;;;5057508;28;20032;-89
2022/11/29 09:22:58;;;;;;;8.18;5.43;;;10.70;80.00;;;;;;5054867;28;20024;-85
2022/11/29 09:25:24;;;;;;;7.05;4.63;;;10.70;80.10;;;;;;5061752;28;20024;-87
2022/11/29 09:27:50;;;;;;;7.35;5.10;;;10.80;80.10;;;;;;5064920;28;20025;-86
2022/11/29 09:30:16;;;;;;;7.82;4.82;;;10.90;79.90;;;;;;5051112;28;20020;-86
2022/11/29 09:32:42;;;;;;;8.75;4.55;;;10.90;79.60;;;;;;5057110;28;20025;-88
2022/11/29 09:35:08;;;;;;;6.88;4.90;;;11.00;78.90;;;;;;5053633;28;20366;-82
2022/11/29 09:37:35;;;;;;;7.22;4.75;;;11.10;79.30;;;;;;5044928;28;20028;-83
2022/11/29 09:40:03;;;;;;;7.28;4.80;;;11.10;79.20;;;;;;5040979;28;20029;-83
2022/11/29 09:42:40;;;;;;;6.57;4.47;;;11.20;78.30;;;;;;5031849;28;20399;-82
2022/11/29 09:45:12;;;;;;;8.75;5.47;;;11.20;78.60;;;;;;5044094;28;20042;-82
2022/11/29 09:48:10;;;;;;;6.95;4.53;;;11.10;77.30;;;;;;5041705;28;20049;-83
2022/11/29 09:50:41;;;;;;;6.22;3.78;;;11.10;78.40;;;;;;4991517;28;20045;-82
2022/11/29 09:53:42;;;;;;;5.78;4.25;;;11.10;78.70;;;;;;5059285;28;20398;-82
2022/11/29 09:56:27;;;;;;;4.47;3.55;;;11.20;78.80;;;;;;5050183;28;20029;-82
2022/11/29 09:59:04;;;;;;;5.20;4.28;;;11.20;78.80;;;;;;5044489;28;20072;-82
2022/11/29 10:01:38;;;;;;;5.45;3.60;;;11.20;78.80;;;;;;5055988;28;20051;-82
2022/11/29 10:04:15;;;;;;;4.40;3.22;;;11.10;78.80;;;;;;5053155;28;20036;-82
2022/11/29 10:07:07;;;;;;;4.80;3.58;;;11.10;79.00;;;;;;5048048;28;20424;-85
2022/11/29 10:09:46;;;;;;;4.80;3.50;;;11.10;79.00;;;;;;5034444;28;20033;-83
2022/11/29 10:12:45;;;;;;;5.40;3.60;;;11.20;79.20;;;;;;5049216;28;20784;-83
2022/11/29 10:15:29;;;;;;;6.07;4.00;;;11.10;79.10;;;;;;5006538;28;20053;-82
2022/11/29 10:18:21;;;;;;;4.50;3.05;;;11.00;79.60;;;;;;5055187;28;20033;-82
2022/11/29 10:20:48;;;;;;;4.43;3.15;;;11.10;79.50;;;;;;5050006;28;20052;-81
2022/11/29 10:23:25;;;;;;;5.43;3.40;;;11.10;79.50;;;;;;5057346;28;20089;-81
2022/11/29 10:25:54;;;;;;;7.80;3.22;;;11.10;79.50;;;;;;5042589;28;20037;-81
2022/11/29 10:28:24;;;;;;;7.10;4.18;;;11.20;79.40;;;;;;5046912;28;20509;-81
2022/11/29 10:30:53;;;;;;;8.52;4.00;;;11.10;79.10;;;;;;5049814;28;20025;-82
2022/11/29 10:33:26;;;;;;;6.80;3.90;;;11.10;79.30;;;;;;5044212;28;20087;-82
2022/11/29 10:35:56;;;;;;;6.32;3.70;;;11.10;79.10;;;;;;5058761;28;20064;-83
2022/11/29 10:38:23;;;;;;;8.38;5.15;;;11.10;79.40;;;;;;5048775;28;20032;-84
2022/11/29 10:40:56;;;;;;;10.98;4.30;;;11.10;79.40;;;;;;5047265;28;20020;-83
2022/11/29 10:43:24;;;;;;;5.43;4.18;;;11.00;79.70;;;;;;5046139;28;20033;-85
2022/11/29 10:45:54;;;;;;;6.00;4.10;;;11.00;79.70;;;;;;5049136;28;20033;-83
2022/11/29 10:48:23;;;;;;;7.15;4.55;;;10.80;79.80;;;;;;5072738;28;20039;-84
2022/11/29 10:50:51;;;;;;;7.00;4.13;;;10.90;80.00;;;;;;5061268;28;20040;-83
2022/11/29 10:53:21;;;;;;;5.97;3.95;;;10.90;80.10;;;;;;5040055;28;20036;-82
2022/11/29 10:55:53;;;;;;;;;;;11.00;79.90;;;;;;5055887;28;20485;-82
2022/11/29 10:58:28;;;;;;;7.97;5.00;;;11.00;79.80;;;;;;5061472;28;19908;-82
2022/11/29 11:01:00;;;;;;;7.78;4.93;;;11.10;79.30;;;;;;5050400;28;20025;-82
2022/11/29 11:03:48;;;;;;;7.18;4.38;;;11.10;79.50;;;;;;5055063;28;20459;-85
2022/11/29 11:06:41;;;;;;;5.60;4.43;;;11.20;79.70;;;;;;5054302;28;20041;-86
2022/11/29 11:09:37;;;;;;;6.47;4.65;;;11.20;79.50;;;;;;5055350;28;20028;-89
2022/11/29 11:12:26;;;;;;;6.97;5.05;;;11.30;79.30;;;;;;5056209;28;20033;-84
2022/11/29 11:15:11;;;;;;;6.95;4.85;;;11.30;79.10;;;;;;5050727;28;20033;-90
2022/11/29 11:17:38;;;;;;;7.57;5.13;;;11.40;79.00;;;;;;5055671;28;20025;-90
2022/11/29 11:20:18;;;;;;;8.13;5.03;;;11.40;78.60;;;;;;5047788;28;20096;-89
2022/11/29 11:23:01;;;;;;;12.95;5.97;;;11.40;78.30;;;;;;5052853;28;20371;-90
2022/11/29 11:25:38;;;;;;;7.32;5.32;;;11.50;78.20;;;;;;5040710;28;20516;-90
2022/11/29 11:28:14;;;;;;;7.78;5.07;;;11.50;78.10;;;;;;5048849;28;20031;-90
2022/11/29 11:30:49;;;;;;;7.72;5.00;;;11.60;78.10;;;;;;5044737;28;20017;-90
2022/11/29 11:33:33;;;;;;;7.45;4.97;;;11.60;77.70;;;;;;5044011;28;20036;-90
2022/11/29 11:36:11;;;;;;;6.80;4.97;;;11.60;77.20;;;;;;5036435;28;20072;-90
2022/11/29 11:38:53;;;;;;;8.90;6.28;;;11.60;77.40;;;;;;5034732;28;20033;-89
2022/11/29 11:44:31;;;;;;;8.60;5.82;;;11.40;77.40;;;;;;5046856;28;20048;-88
2022/11/29 11:46:59;;;;;;;9.23;6.00;;;11.40;77.00;;;;;;5053257;28;20351;-88
2022/11/29 11:49:35;;;;;;;10.18;6.80;;;11.30;77.10;;;;;;5044668;28;20052;-90
2022/11/29 11:52:04;;;;;;;11.07;7.68;;;10.90;77.80;;;;;;5058747;28;20036;-89
2022/11/29 11:54:31;;;;;;;11.30;6.93;;;10.80;77.60;;;;;;5055363;28;20398;-88
2022/11/29 11:56:57;;;;;;;11.45;6.82;;;10.80;78.60;;;;;;5049378;28;20508;-89
2022/11/29 11:59:25;;;;;;;14.85;6.38;;;10.90;78.90;;;;;;5047311;28;20025;-88
2022/11/29 12:01:51;;;;;;;9.90;6.88;;;11.00;78.60;;;;;;5050147;28;20021;-89
2022/11/29 12:04:36;;;;;;;8.82;6.13;;;11.10;78.20;;;;;;5054577;28;20112;-88
2022/11/29 12:07:12;;;;;;;10.07;6.00;;;11.20;78.20;;;;;;5041161;28;20044;-89
2022/11/29 12:09:42;;;;;;;9.15;6.25;;;11.30;78.20;;;;;;5050302;28;20038;-89
2022/11/29 12:12:30;;;;;;;8.35;5.72;;;11.40;78.10;;;;;;5051490;28;20171;-87
2022/11/29 12:15:15;;;;;;;9.55;6.93;;;11.50;77.70;;;;;;5050330;28;20033;-89
2022/11/29 12:17:50;;;;;;;11.23;6.72;;;11.60;77.50;;;;;;5046113;28;20385;-89
2022/11/29 12:20:34;;;;;;;9.38;6.63;;;11.60;77.00;;;;;;5034574;28;20087;-88
2022/11/29 12:23:12;;;;;;;12.13;7.05;;;11.70;76.80;;;;;;5045927;28;20083;-87
2022/11/29 12:25:50;;;;;;;11.82;7.40;;;11.70;76.50;;;;;;5046886;28;20025;-87
2022/11/29 12:28:18;;;;;;;9.60;6.15;;;11.70;76.10;;;;;;5046460;28;20125;-86
2022/11/29 12:30:55;;;;;;;10.23;6.68;;;11.60;76.40;;;;;;5034858;28;20032;-82
2022/11/29 12:33:48;;;;;;;11.32;7.03;;;11.60;76.80;;;;;;5035625;28;20045;-81
2022/11/29 12:36:46;;;;;;;9.23;6.57;;;11.70;76.90;;;;;;5033786;28;20492;-81
2022/11/29 12:39:44;;;;;;;11.68;6.82;;;11.70;76.30;;;;;;5046389;28;20441;-82
2022/11/29 12:42:13;;;;;;;11.40;6.78;;;11.70;75.80;;;;;;5051545;28;20029;-85
2022/11/29 12:44:55;;;;;;;12.80;8.18;;;11.60;76.40;;;;;;5046488;28;20041;-87
2022/11/29 12:47:23;;;;;;;11.63;8.00;;;11.60;76.30;;;;;;5041684;28;20017;-87
2022/11/29 12:50:19;;;;;;;10.18;7.00;;;11.60;76.10;;;;;;5051844;28;20083;-87
2022/11/29 12:52:58;;;;;;;11.10;7.07;;;11.50;76.10;;;;;;5033740;28;20385;-87
2022/11/29 12:55:48;;;;;;;11.30;7.07;;;11.40;76.30;;;;;;5055547;28;20036;-80
2022/11/29 12:58:20;;;;;;;13.63;7.57;;;11.50;76.40;;;;;;5042785;28;20049;-81
2022/11/29 13:01:10;;;;;;;14.80;9.38;;;11.40;75.80;;;;;;5048479;28;20572;-82
2022/11/29 13:04:08;;;;;;;12.07;7.72;;;11.30;75.90;;;;;;5042005;28;20033;-82
2022/11/29 13:06:43;;;;;;;11.00;7.05;;;11.40;76.40;;;;;;5005744;28;20124;-82
2022/11/29 13:09:23;;;;;;;13.38;8.73;;;11.40;76.30;;;;;;5050494;28;20040;-83
2022/11/29 13:12:03;;;;;;;13.50;8.30;;;11.50;75.30;;;;;;5048566;28;20037;-82
2022/11/29 13:14:53;;;;;;;11.98;7.53;;;11.50;75.90;;;;;;5054183;28;20032;-82
2022/11/29 13:17:45;;;;;;;11.40;7.55;;;11.60;75.70;;;;;;5047002;28;20020;-85
2022/11/29 13:20:14;;;;;;;10.68;7.20;;;11.60;75.10;;;;;;5031291;28;20057;-81
2022/11/29 13:22:53;;;;;;;11.63;7.53;;;11.60;74.80;;;;;;5038863;28;20037;-81
2022/11/29 13:25:35;;;;;;;9.80;7.03;;;11.70;74.70;;;;;;5044665;28;20112;-81
2022/11/29 13:28:28;;;;;;;11.70;6.95;;;11.70;74.50;;;;;;5052170;28;20103;-85
2022/11/29 13:30:59;;;;;;;11.02;7.28;;;11.70;74.50;;;;;;5047639;28;20046;-84
2022/11/29 13:33:33;;;;;;;12.88;8.35;;;11.70;73.90;;;;;;5057792;28;20503;-85
2022/11/29 13:36:14;;;;;;;13.02;7.90;;;11.70;73.50;;;;;;5042275;28;20044;-85
2022/11/29 13:38:55;;;;;;;11.23;7.47;;;11.70;73.20;;;;;;5033494;28;20064;-84
2022/11/29 13:41:36;;;;;;;12.23;7.45;;;11.70;72.90;;;;;;5036236;28;20072;-85
2022/11/29 13:44:22;;;;;;;15.23;9.32;;;11.70;73.10;;;;;;5042994;28;20097;-85